createdAt,value
2019-04-05T00:00:35.700Z,7.39
2019-04-05T00:03:06.994Z,7.41
2019-04-05T00:05:38.041Z,7.38
2019-04-05T00:08:09.170Z,7.41
2019-04-05T00:10:40.488Z,7.33
2019-04-05T00:13:11.559Z,7.25
2019-04-05T00:15:42.949Z,7.17
2019-04-05T00:18:14.187Z,7.12
2019-04-05T00:20:48.206Z,7.16
2019-04-05T00:23:19.311Z,7.07
2019-04-05T00:25:50.229Z,7.10
2019-04-05T00:28:21.527Z,6.54
2019-04-05T00:30:52.530Z,6.60
2019-04-05T00:33:23.532Z,6.55
2019-04-05T00:35:55.183Z,6.70
2019-04-05T00:38:26.360Z,6.42
2019-04-05T00:40:57.418Z,6.45
2019-04-05T00:43:28.869Z,6.40
2019-04-05T00:45:59.879Z,6.53
2019-04-05T00:48:30.696Z,6.51
2019-04-05T00:51:01.986Z,6.76
2019-04-05T00:53:33.344Z,6.86
2019-04-05T00:56:04.615Z,6.72
2019-04-05T00:58:35.564Z,6.81
2019-04-05T01:01:06.367Z,6.74
2019-04-05T01:03:37.341Z,6.59
2019-04-05T01:06:08.730Z,6.63
2019-04-05T01:08:40.111Z,6.59
2019-04-05T01:11:11.031Z,6.41
2019-04-05T01:13:42.365Z,6.57
2019-04-05T01:16:13.009Z,6.48
2019-04-05T01:18:44.152Z,6.37
2019-04-05T01:21:16.413Z,6.05
2019-04-05T01:23:48.084Z,6.33
2019-04-05T01:26:19.493Z,6.41
2019-04-05T01:28:51.063Z,6.49
2019-04-05T01:31:22.091Z,6.52
2019-04-05T01:33:53.247Z,6.38
2019-04-05T01:36:24.228Z,6.28
2019-04-05T01:38:55.231Z,6.33
2019-04-05T01:41:26.653Z,6.12
2019-04-05T01:43:57.193Z,6.30
2019-04-05T01:46:30.855Z,6.40
2019-04-05T01:49:02.024Z,6.52
2019-04-05T01:51:33.049Z,6.38
2019-04-05T01:54:04.333Z,6.50
2019-04-05T01:56:34.804Z,6.18
2019-04-05T01:59:05.939Z,6.43
2019-04-05T02:01:36.754Z,6.47
2019-04-05T02:04:07.741Z,6.48
2019-04-05T02:06:38.828Z,6.33
2019-04-05T02:09:12.212Z,6.34
2019-04-05T02:11:43.768Z,6.30
2019-04-05T02:14:14.837Z,6.28
2019-04-05T02:16:45.999Z,6.25
2019-04-05T02:19:16.911Z,6.14
2019-04-05T02:21:48.457Z,6.19
2019-04-05T02:24:19.555Z,6.23
2019-04-05T02:26:50.693Z,6.26
2019-04-05T02:29:22.161Z,6.18
2019-04-05T02:31:53.295Z,5.95
2019-04-05T02:34:24.354Z,6.04
2019-04-05T02:36:55.377Z,6.03
2019-04-05T02:39:26.670Z,6.01
2019-04-05T02:41:58.318Z,5.93
2019-04-05T02:44:30.352Z,6.07
2019-04-05T02:47:01.713Z,5.83
2019-04-05T02:49:33.763Z,5.98
2019-04-05T02:52:05.467Z,5.79
2019-04-05T02:54:36.799Z,5.87
2019-04-05T02:57:09.200Z,5.78
2019-04-05T02:59:40.350Z,5.55
2019-04-05T03:02:12.363Z,5.56
2019-04-05T03:04:43.595Z,5.63
2019-04-05T03:07:14.825Z,5.54
2019-04-05T03:09:46.210Z,5.53
2019-04-05T03:12:19.149Z,5.45
2019-04-05T03:14:50.885Z,5.46
2019-04-05T03:17:23.269Z,5.45
2019-04-05T03:19:55.641Z,5.32
2019-04-05T03:22:27.805Z,5.36
2019-04-05T03:25:00.010Z,5.27
2019-04-05T03:27:32.134Z,5.28
2019-04-05T03:30:03.194Z,5.22
2019-04-05T03:32:34.514Z,5.16
2019-04-05T03:35:05.885Z,5.06
2019-04-05T03:37:37.053Z,4.99
2019-04-05T03:40:08.077Z,4.87
2019-04-05T03:42:39.485Z,5.10
2019-04-05T03:45:10.450Z,4.87
2019-04-05T03:47:41.929Z,4.82
2019-04-05T03:50:13.344Z,4.92
2019-04-05T03:52:44.985Z,4.93
2019-04-05T03:55:16.247Z,4.87
2019-04-05T03:57:47.770Z,4.79
2019-04-05T04:00:19.155Z,4.78
2019-04-05T04:02:50.617Z,4.80
2019-04-05T04:05:21.805Z,4.77
2019-04-05T04:07:52.990Z,4.66
2019-04-05T04:10:25.245Z,4.66
2019-04-05T04:12:56.894Z,4.56
2019-04-05T04:15:28.243Z,4.67
2019-04-05T04:17:59.554Z,4.64
2019-04-05T04:20:42.252Z,4.74
2019-04-05T04:23:13.702Z,4.67
2019-04-05T04:25:45.025Z,4.70
2019-04-05T04:28:16.556Z,4.57
2019-04-05T04:30:48.045Z,4.63
2019-04-05T04:33:19.494Z,4.72
2019-04-05T04:35:51.997Z,4.64
2019-04-05T04:38:22.955Z,4.68
2019-04-05T04:40:53.946Z,4.66
2019-04-05T04:43:25.165Z,4.77
2019-04-05T04:45:56.499Z,4.75
2019-04-05T04:48:28.861Z,4.93
2019-04-05T04:51:00.181Z,5.00
2019-04-05T04:53:31.471Z,4.97
2019-04-05T04:56:02.873Z,4.74
2019-04-05T04:58:33.926Z,4.67
2019-04-05T05:01:05.469Z,4.55
2019-04-05T05:03:36.959Z,4.69
2019-04-05T05:06:08.337Z,4.57
2019-04-05T05:08:39.565Z,4.81
2019-04-05T05:11:14.822Z,4.93
2019-04-05T05:13:43.055Z,4.91
2019-04-05T05:16:14.067Z,5.44
2019-04-05T05:18:45.279Z,5.50
2019-04-05T05:21:16.778Z,5.84
2019-04-05T05:23:48.041Z,6.08
2019-04-05T05:26:19.258Z,6.38
2019-04-05T05:28:50.466Z,6.62
2019-04-05T05:31:21.678Z,6.95
2019-04-05T05:33:52.742Z,7.00
2019-04-05T05:36:23.727Z,6.85
2019-04-05T05:38:54.896Z,7.04
2019-04-05T05:41:26.099Z,7.24
2019-04-05T05:43:57.576Z,7.62
2019-04-05T05:46:29.139Z,8.13
2019-04-05T05:49:00.332Z,8.65
2019-04-05T05:51:32.147Z,7.96
2019-04-05T05:54:03.112Z,7.75
2019-04-05T05:56:34.410Z,7.74
2019-04-05T05:59:05.385Z,7.09
2019-04-05T06:01:36.657Z,6.93
2019-04-05T06:04:07.648Z,7.01
2019-04-05T06:06:38.986Z,6.90
2019-04-05T06:09:10.288Z,7.06
2019-04-05T06:11:41.387Z,6.92
2019-04-05T06:29:52.443Z,9.04
2019-04-05T06:32:23.965Z,9.30
2019-04-05T06:34:55.624Z,9.26
2019-04-05T06:37:27.636Z,9.34
2019-04-05T06:39:59.336Z,9.46
2019-04-05T06:42:31.022Z,9.08
2019-04-05T06:45:02.836Z,8.85
2019-04-05T06:47:34.784Z,8.55
2019-04-05T06:50:07.382Z,8.55
2019-04-05T06:52:39.404Z,8.69
2019-04-05T06:55:11.346Z,8.64
2019-04-05T06:57:42.947Z,8.58
2019-04-05T07:00:15.102Z,8.67
2019-04-05T07:02:46.976Z,9.39
2019-04-05T07:05:20.938Z,9.33
2019-04-05T07:07:52.549Z,9.14
2019-04-05T07:10:24.186Z,9.54
2019-04-05T07:12:56.284Z,9.50
2019-04-05T07:15:28.019Z,9.74
2019-04-05T07:17:59.672Z,9.81
2019-04-05T07:20:31.538Z,9.85
2019-04-05T07:23:03.355Z,10.11
2019-04-05T07:25:34.949Z,10.38
2019-04-05T07:28:06.748Z,10.46
2019-04-05T07:30:38.594Z,10.16
2019-04-05T07:33:10.221Z,10.44
2019-04-05T07:35:41.911Z,10.84
2019-04-05T07:38:13.696Z,11.01
2019-04-05T07:40:45.448Z,11.09
2019-04-05T07:43:17.237Z,10.83
2019-04-05T07:45:48.833Z,10.36
2019-04-05T07:48:20.629Z,9.90
2019-04-05T07:50:52.232Z,9.98
2019-04-05T07:53:24.185Z,9.81
2019-04-05T07:55:55.810Z,10.05
2019-04-05T07:58:27.396Z,10.36
2019-04-05T08:00:59.381Z,10.35
2019-04-05T08:03:31.064Z,10.76
2019-04-05T08:06:02.862Z,10.52
2019-04-05T08:08:45.748Z,10.64
2019-04-05T08:11:19.751Z,10.57
2019-04-05T08:13:53.373Z,10.36
2019-04-05T08:16:25.151Z,10.46
2019-04-05T08:18:58.388Z,10.25
2019-04-05T08:21:30.460Z,10.36
2019-04-05T08:24:02.351Z,10.33
2019-04-05T08:26:33.951Z,10.48
2019-04-05T08:29:06.136Z,10.57
2019-04-05T08:31:37.880Z,10.89
2019-04-05T08:34:09.968Z,10.91
2019-04-05T08:36:41.829Z,11.15
2019-04-05T08:39:13.865Z,11.14
2019-04-05T08:41:45.571Z,11.12
2019-04-05T08:44:17.608Z,11.01
2019-04-05T08:46:49.349Z,10.94
2019-04-05T08:49:21.060Z,10.96
2019-04-05T08:51:52.867Z,11.14
2019-04-05T08:54:32.586Z,11.36
2019-04-05T08:56:58.000Z,11.11
2019-04-05T08:59:29.910Z,10.98
2019-04-05T09:02:01.356Z,11.18
2019-04-05T09:04:32.873Z,11.25
2019-04-05T09:07:04.718Z,11.42
2019-04-05T09:09:36.576Z,11.59
2019-04-05T09:12:08.510Z,12.02
2019-04-05T09:14:40.209Z,12.39
2019-04-05T09:17:11.943Z,12.29
2019-04-05T09:19:43.578Z,12.06
2019-04-05T09:22:15.183Z,11.93
2019-04-05T09:24:46.634Z,11.97
2019-04-05T09:27:18.680Z,12.16
2019-04-05T09:43:20.898Z,13.23
2019-04-05T09:45:52.401Z,13.21
2019-04-05T09:48:23.934Z,13.03
2019-04-05T09:50:55.770Z,13.13
2019-04-05T09:53:27.673Z,13.14
2019-04-05T09:55:59.486Z,13.15
2019-04-05T09:58:32.569Z,13.24
2019-04-05T10:01:04.332Z,13.27
2019-04-05T10:03:35.825Z,13.11
2019-04-05T10:06:07.550Z,13.35
2019-04-05T10:08:39.641Z,13.13
2019-04-05T10:11:11.117Z,13.06
2019-04-05T10:13:42.951Z,12.95
2019-04-05T10:16:14.761Z,12.89
2019-04-05T10:18:46.570Z,13.00
2019-04-05T10:21:18.320Z,13.37
2019-04-05T10:23:49.966Z,13.72
2019-04-05T10:26:21.609Z,13.22
2019-04-05T10:28:53.531Z,13.27
2019-04-05T10:31:25.626Z,13.28
2019-04-05T10:33:57.529Z,12.97
2019-04-05T10:36:29.146Z,13.14
2019-04-05T10:39:00.722Z,13.15
2019-04-05T10:41:32.800Z,13.18
2019-04-05T10:44:06.016Z,13.04
2019-04-05T10:46:37.888Z,13.22
2019-04-05T10:49:09.535Z,13.35
2019-04-05T10:51:41.306Z,13.41
2019-04-05T10:54:12.981Z,13.53
2019-04-05T10:56:44.800Z,13.35
2019-04-05T10:59:16.653Z,13.28
2019-04-05T11:01:48.278Z,13.53
2019-04-05T11:04:20.068Z,13.49
2019-04-05T11:06:51.621Z,13.78
2019-04-05T11:09:23.485Z,13.91
2019-04-05T11:11:55.375Z,13.66
2019-04-05T11:14:27.907Z,13.93
2019-04-05T11:16:59.768Z,14.02
2019-04-05T11:19:32.334Z,14.15
2019-04-05T11:22:05.227Z,14.15
2019-04-05T11:24:36.904Z,14.00
2019-04-05T11:27:08.742Z,14.01
2019-04-05T11:29:40.487Z,13.83
2019-04-05T11:32:11.996Z,13.79
2019-04-05T11:34:43.915Z,14.08
2019-04-05T11:37:16.885Z,13.85
2019-04-05T11:39:49.686Z,14.17
2019-04-05T11:42:24.259Z,14.42
2019-04-05T11:44:58.750Z,14.52
2019-04-05T11:47:31.349Z,14.28
2019-04-05T11:50:04.572Z,14.36
2019-04-05T11:52:35.288Z,14.46
2019-04-05T11:55:07.346Z,14.75
2019-04-05T11:57:40.968Z,14.73
2019-04-05T12:00:17.909Z,14.55
2019-04-05T12:03:01.253Z,14.59
2019-04-05T12:05:33.370Z,14.74
2019-04-05T12:08:05.779Z,14.45
2019-04-05T12:10:37.714Z,14.70
2019-04-05T12:13:09.529Z,14.90
2019-04-05T12:15:41.249Z,14.95
2019-04-05T12:18:16.002Z,14.61
2019-04-05T12:20:50.929Z,14.78
2019-04-05T12:23:18.453Z,14.76
2019-04-05T12:25:49.855Z,14.88
2019-04-05T12:28:21.529Z,14.54
2019-04-05T12:30:56.120Z,14.34
2019-04-05T12:33:27.802Z,14.55
2019-04-05T12:35:59.756Z,14.73
2019-04-05T12:38:33.115Z,14.82
2019-04-05T12:41:05.497Z,14.77
2019-04-05T12:43:37.083Z,15.01
2019-04-05T12:46:08.976Z,15.21
2019-04-05T12:48:40.679Z,15.39
2019-04-05T12:51:13.152Z,15.87
2019-04-05T12:53:44.478Z,16.17
2019-04-05T12:56:16.084Z,16.44
2019-04-05T12:58:47.599Z,16.40
2019-04-05T13:01:19.361Z,16.10
2019-04-05T13:03:51.850Z,16.05
2019-04-05T13:06:23.696Z,15.90
2019-04-05T13:08:55.286Z,15.76
2019-04-05T13:11:27.371Z,15.80
2019-04-05T13:13:59.721Z,15.95
2019-04-05T13:16:31.579Z,15.76
2019-04-05T13:19:03.621Z,15.43
2019-04-05T13:21:35.071Z,15.66
2019-04-05T13:24:10.059Z,15.46
2019-04-05T13:26:42.067Z,15.39
2019-04-05T13:29:14.234Z,15.27
2019-04-05T13:31:46.575Z,15.08
2019-04-05T13:34:19.155Z,14.70
2019-04-05T13:36:50.930Z,14.62
2019-04-05T13:39:22.643Z,14.64
2019-04-05T13:41:54.133Z,14.41
2019-04-05T13:44:25.930Z,14.34
2019-04-05T13:46:57.533Z,14.02
2019-04-05T13:49:29.588Z,14.21
2019-04-05T13:52:01.387Z,14.37
2019-04-05T13:54:33.470Z,14.18
2019-04-05T13:57:05.194Z,14.06
2019-04-05T13:59:36.950Z,14.02
2019-04-05T14:02:08.835Z,14.32
2019-04-05T14:04:40.334Z,14.25
2019-04-05T14:07:11.707Z,14.28
2019-04-05T14:09:43.302Z,14.44
2019-04-05T14:12:15.128Z,14.43
2019-04-05T14:14:51.025Z,14.43
2019-04-05T14:17:20.585Z,14.59
2019-04-05T14:19:52.392Z,14.71
2019-04-05T14:22:24.404Z,14.63
2019-04-05T14:24:56.794Z,14.68
2019-04-05T14:27:28.649Z,14.68
2019-04-05T14:30:03.110Z,14.71
2019-04-05T14:32:35.842Z,14.80
2019-04-05T14:35:08.405Z,14.79
2019-04-05T14:37:40.400Z,14.68
2019-04-05T14:40:14.036Z,14.58
2019-04-05T14:42:45.847Z,14.44
2019-04-05T14:45:17.671Z,14.50
2019-04-05T14:47:49.498Z,14.60
2019-04-05T14:50:21.292Z,14.49
2019-04-05T14:52:53.057Z,14.57
2019-04-05T14:55:24.560Z,14.55
2019-04-05T14:57:56.357Z,14.62
2019-04-05T15:00:29.474Z,14.54
2019-04-05T15:03:00.935Z,14.66
2019-04-05T15:05:32.712Z,14.71
2019-04-05T15:08:04.465Z,14.76
2019-04-05T15:10:36.304Z,14.81
2019-04-05T15:13:09.274Z,14.50
2019-04-05T15:15:40.953Z,14.49
2019-04-05T15:18:12.633Z,14.78
2019-04-05T15:20:46.436Z,14.70
2019-04-05T15:23:18.226Z,14.78
2019-04-05T15:25:50.536Z,14.90
2019-04-05T15:28:22.473Z,14.85
2019-04-05T15:30:56.250Z,14.62
2019-04-05T15:33:28.492Z,14.59
2019-04-05T15:36:03.118Z,14.44
2019-04-05T15:38:34.971Z,14.42
2019-04-05T15:41:06.488Z,14.48
2019-04-05T15:43:38.437Z,14.48
2019-04-05T15:46:10.321Z,14.58
2019-04-05T15:48:41.989Z,14.60
2019-04-05T15:51:13.489Z,14.63
2019-04-05T15:53:45.160Z,14.74
2019-04-05T15:56:17.148Z,14.58
2019-04-05T15:58:48.971Z,14.60
2019-04-05T16:01:20.748Z,14.68
2019-04-05T16:03:52.328Z,14.63
2019-04-05T16:06:24.199Z,14.62
2019-04-05T16:08:56.075Z,14.43
2019-04-05T16:11:27.505Z,14.41
2019-04-05T16:13:59.477Z,14.41
2019-04-05T16:16:31.046Z,14.45
2019-04-05T16:19:03.103Z,14.34
2019-04-05T16:21:34.866Z,14.39
2019-04-05T16:24:07.705Z,14.35
2019-04-05T16:26:39.283Z,14.41
2019-04-05T16:29:11.155Z,14.08
2019-04-05T16:31:42.977Z,14.12
2019-04-05T16:34:14.435Z,14.26
2019-04-05T16:36:46.328Z,14.23
2019-04-05T16:39:21.042Z,14.25
2019-04-05T16:41:52.385Z,14.26
2019-04-05T16:44:23.963Z,14.23
2019-04-05T16:46:56.167Z,14.17
2019-04-05T16:49:27.752Z,14.11
2019-04-05T16:51:59.555Z,14.10
2019-04-05T16:54:31.311Z,14.07
2019-04-05T16:57:02.910Z,14.06
2019-04-05T16:59:34.753Z,14.20
2019-04-05T17:02:06.650Z,14.03
2019-04-05T17:04:38.526Z,13.87
2019-04-05T17:07:10.119Z,13.90
2019-04-05T17:09:41.779Z,13.85
2019-04-05T17:12:13.465Z,13.59
2019-04-05T17:14:45.177Z,13.63
2019-04-05T17:17:16.703Z,13.64
2019-04-05T17:19:48.329Z,13.63
2019-04-05T17:22:23.025Z,13.49
2019-04-05T17:24:54.696Z,13.38
2019-04-05T17:27:26.584Z,13.42
2019-04-05T17:29:58.312Z,13.25
2019-04-05T17:32:30.031Z,13.28
2019-04-05T17:35:01.794Z,13.26
2019-04-05T17:37:33.729Z,13.28
2019-04-05T17:40:08.343Z,13.29
2019-04-05T17:42:40.931Z,13.09
2019-04-05T17:45:12.952Z,13.10
2019-04-05T17:47:44.715Z,13.08
2019-04-05T17:50:19.944Z,13.10
2019-04-05T17:52:51.757Z,13.17
2019-04-05T17:55:23.713Z,12.94
2019-04-05T17:57:55.649Z,12.77
2019-04-05T18:00:27.515Z,12.76
2019-04-05T18:02:59.591Z,12.61
2019-04-05T18:05:31.445Z,12.48
2019-04-05T18:08:03.339Z,12.42
2019-04-05T18:10:35.031Z,12.58
2019-04-05T18:13:06.993Z,12.24
2019-04-05T18:15:46.686Z,12.45
2019-04-05T18:18:12.954Z,12.57
2019-04-05T18:20:44.650Z,12.16
2019-04-05T18:23:24.922Z,12.29
2019-04-05T18:25:51.070Z,12.27
2019-04-05T18:28:22.999Z,12.37
2019-04-05T18:30:54.846Z,12.19
2019-04-05T18:33:26.582Z,11.93
2019-04-05T18:35:58.363Z,11.75
2019-04-05T18:38:30.333Z,11.51
2019-04-05T18:41:02.120Z,11.52
2019-04-05T18:43:34.017Z,11.27
2019-04-05T18:46:05.611Z,11.14
2019-04-05T18:48:37.348Z,11.06
2019-04-05T18:51:08.908Z,11.09
2019-04-05T18:53:40.785Z,10.98
2019-04-05T18:57:14.282Z,10.91
2019-04-05T18:59:47.408Z,11.02
2019-04-05T19:02:19.153Z,10.97
2019-04-05T19:04:51.183Z,10.89
2019-04-05T19:07:23.018Z,11.04
2019-04-05T19:09:54.558Z,11.15
2019-04-05T19:12:26.161Z,11.29
2019-04-05T19:14:57.932Z,11.24
2019-04-05T19:17:30.691Z,11.02
2019-04-05T19:20:02.548Z,11.05
2019-04-05T19:22:34.263Z,11.02
2019-04-05T19:25:06.104Z,11.16
2019-04-05T19:27:37.790Z,11.25
2019-04-05T19:50:38.038Z,11.16
2019-04-05T19:53:09.813Z,11.07
2019-04-05T19:55:41.482Z,11.10
2019-04-05T19:58:13.336Z,11.13
2019-04-05T20:00:44.913Z,11.18
2019-04-05T20:03:16.725Z,11.13
2019-04-05T20:05:48.548Z,11.19
2019-04-05T20:08:20.296Z,11.13
2019-04-05T20:10:51.821Z,11.12
2019-04-05T20:13:23.553Z,11.15
2019-04-05T20:15:55.027Z,11.25
2019-04-05T20:18:27.009Z,11.25
2019-04-05T20:20:58.808Z,11.24
2019-04-05T20:23:30.484Z,11.23
2019-04-05T20:26:02.234Z,11.25
2019-04-05T20:28:34.113Z,11.27
2019-04-05T20:31:05.862Z,11.20
2019-04-05T20:33:37.470Z,11.29
2019-04-05T20:36:09.269Z,11.27
2019-04-05T20:38:40.907Z,11.19
2019-04-05T20:41:12.910Z,11.20
2019-04-05T20:43:44.446Z,11.22
2019-04-05T20:46:17.111Z,11.22
2019-04-05T20:48:48.833Z,11.18
2019-04-05T20:51:20.608Z,11.15
2019-04-05T20:53:52.224Z,10.76
2019-04-05T20:56:23.610Z,10.75
2019-04-05T20:58:55.324Z,10.77
2019-04-05T21:01:26.867Z,10.72
2019-04-05T21:03:58.655Z,10.72
2019-04-05T21:06:30.417Z,10.68
2019-04-05T21:09:02.010Z,10.58
2019-04-05T21:11:35.132Z,10.53
2019-04-05T21:14:06.931Z,10.49
2019-04-05T21:16:38.217Z,10.42
2019-04-05T21:19:09.883Z,10.41
2019-04-05T21:21:41.770Z,10.30
2019-04-05T21:24:13.434Z,10.29
2019-04-05T21:26:45.135Z,10.22
2019-04-05T21:29:16.951Z,10.17
2019-04-05T21:31:48.757Z,10.03
2019-04-05T21:34:20.542Z,10.04
2019-04-05T21:36:52.136Z,9.94
2019-04-05T21:39:23.634Z,9.99
2019-04-05T21:41:55.379Z,9.83
2019-04-05T21:44:27.213Z,9.77
2019-04-05T21:46:59.043Z,9.80
2019-04-05T21:49:30.928Z,9.76
2019-04-05T21:52:02.670Z,9.72
2019-04-05T21:54:34.363Z,9.61
2019-04-05T21:57:06.143Z,9.55
2019-04-05T21:59:37.761Z,9.14
2019-04-05T22:02:09.559Z,9.23
2019-04-05T22:04:41.473Z,9.23
2019-04-05T22:07:12.986Z,9.13
2019-04-05T22:09:44.595Z,9.08
2019-04-05T22:12:16.256Z,8.95
2019-04-05T22:14:47.990Z,8.92
2019-04-05T22:17:19.763Z,8.76
2019-04-05T22:19:51.605Z,8.84
2019-04-05T22:22:23.084Z,8.73
2019-04-05T22:24:59.514Z,8.73
2019-04-05T22:27:28.243Z,8.74
2019-04-05T22:30:00.149Z,8.71
2019-04-05T22:32:31.808Z,8.67
2019-04-05T22:35:03.766Z,8.77
2019-04-05T22:37:35.174Z,8.69
2019-04-05T22:40:07.391Z,8.76
2019-04-05T22:42:40.079Z,8.71
2019-04-05T22:45:12.007Z,8.65
2019-04-05T22:47:43.515Z,8.67
2019-04-05T22:50:15.306Z,8.60
2019-04-05T22:52:46.708Z,8.49
2019-04-05T22:55:18.421Z,8.41
2019-04-05T22:57:50.405Z,8.49
2019-04-05T23:00:22.052Z,8.41
2019-04-05T23:02:53.538Z,8.57
2019-04-05T23:05:25.288Z,8.53
2019-04-05T23:07:57.038Z,8.53
2019-04-05T23:10:28.779Z,8.41
2019-04-05T23:13:00.596Z,8.52
2019-04-05T23:15:32.087Z,8.53
2019-04-05T23:18:03.793Z,8.52
2019-04-05T23:20:35.117Z,8.57
2019-04-05T23:23:06.514Z,8.61
2019-04-05T23:25:37.786Z,8.44
2019-04-05T23:28:09.623Z,8.42
2019-04-05T23:30:41.501Z,8.32
2019-04-05T23:33:13.553Z,8.08
2019-04-05T23:35:45.166Z,8.40
2019-04-05T23:38:16.792Z,8.37
2019-04-05T23:40:48.293Z,8.38
2019-04-05T23:43:19.955Z,8.41
2019-04-05T23:45:51.854Z,8.37
2019-04-05T23:48:23.381Z,8.32
2019-04-05T23:50:55.323Z,8.45
2019-04-05T23:53:26.873Z,8.14
2019-04-05T23:55:58.599Z,8.28
2019-04-05T23:58:31.090Z,8.35
